Time;durP1;ratioP1;P1;durP2;ratioP2;P2;SDS_P1;SDS_P2;PMS_P1;PMS_P2;Temp;Humidity;BMP_temperature;BMP_pressure;BME280_temperature;BME280_humidity;BME280_pressure;Samples;Min_cycle;Max_cycle;Signal;HPM_P1;HPM_P2
2023/12/28 00:00:33;;;;;;;8.90;5.57;;;8.80;99.90;;;;;;6216028;23;20464;-77
2023/12/28 00:02:58;;;;;;;11.60;5.72;;;8.80;99.90;;;;;;6189331;23;20016;-77
2023/12/28 00:05:24;;;;;;;9.13;5.45;;;8.90;99.90;;;;;;6189373;23;20075;-77
2023/12/28 00:07:56;;;;;;;9.60;5.65;;;8.80;99.90;;;;;;6185703;23;20013;-77
2023/12/28 00:10:23;;;;;;;8.43;5.10;;;8.90;99.90;;;;;;6189441;23;20024;-77
2023/12/28 00:12:58;;;;;;;15.38;5.70;;;8.90;99.90;;;;;;6189366;23;20381;-77
2023/12/28 00:15:23;;;;;;;7.82;5.15;;;8.90;99.90;;;;;;6189308;23;20048;-77
2023/12/28 00:17:49;;;;;;;12.57;5.70;;;8.90;99.90;;;;;;6189377;23;20024;-77
2023/12/28 00:20:15;;;;;;;9.25;4.72;;;8.90;99.90;;;;;;6215897;23;20053;-77
2023/12/28 00:22:40;;;;;;;11.20;5.07;;;8.90;99.90;;;;;;6215764;23;20068;-77
2023/12/28 00:25:08;;;;;;;12.23;5.10;;;8.90;99.90;;;;;;6216127;23;20023;-77
2023/12/28 00:27:35;;;;;;;14.38;5.43;;;8.90;99.90;;;;;;6189154;23;20405;-77
2023/12/28 00:30:01;;;;;;;15.85;5.78;;;8.80;99.90;;;;;;6190907;23;20055;-77
2023/12/28 00:32:26;;;;;;;12.07;5.10;;;8.90;99.90;;;;;;6191161;23;20017;-77
2023/12/28 00:34:52;;;;;;;10.30;5.30;;;8.80;99.90;;;;;;6191225;23;20021;-77
2023/12/28 00:37:17;;;;;;;14.45;5.32;;;8.90;99.90;;;;;;6191141;23;20023;-77
2023/12/28 00:39:44;;;;;;;14.43;4.32;;;8.90;99.90;;;;;;6191134;23;20021;-77
2023/12/28 00:42:09;;;;;;;10.38;4.20;;;8.90;99.90;;;;;;6191031;23;20027;-77
2023/12/28 00:44:35;;;;;;;10.68;4.55;;;8.90;99.90;;;;;;6191036;23;20013;-77
2023/12/28 00:47:01;;;;;;;13.60;4.28;;;8.90;99.90;;;;;;6217158;23;20013;-77
2023/12/28 00:49:26;;;;;;;13.43;4.72;;;8.90;99.90;;;;;;6191039;23;20028;-77
2023/12/28 00:51:52;;;;;;;18.48;4.88;;;8.90;99.90;;;;;;6191046;23;20019;-77
2023/12/28 00:54:18;;;;;;;14.90;4.85;;;8.90;99.90;;;;;;6191074;23;20056;-77
2023/12/28 00:56:43;;;;;;;17.60;4.72;;;8.90;99.90;;;;;;6191006;23;20394;-77
2023/12/28 00:59:09;;;;;;;14.07;4.55;;;8.90;99.90;;;;;;6190978;23;20009;-77
2023/12/28 01:01:34;;;;;;;14.73;4.45;;;8.90;99.90;;;;;;6191224;23;20020;-77
2023/12/28 01:04:00;;;;;;;15.35;5.22;;;8.90;99.90;;;;;;6190994;23;20013;-77
2023/12/28 01:06:28;;;;;;;25.52;4.50;;;9.00;99.90;;;;;;6190980;23;20020;-77
2023/12/28 01:08:55;;;;;;;32.20;5.00;;;9.00;99.90;;;;;;6217618;23;20020;-77
2023/12/28 01:11:24;;;;;;;23.95;4.38;;;9.00;99.90;;;;;;6190884;23;20083;-77
2023/12/28 01:13:51;;;;;;;27.05;6.05;;;9.10;99.90;;;;;;6190762;23;20017;-77
2023/12/28 01:16:17;;;;;;;18.00;3.88;;;9.00;99.90;;;;;;6190640;23;20028;-77
2023/12/28 01:18:43;;;;;;;21.10;4.03;;;9.00;99.90;;;;;;6190830;23;20016;-77
2023/12/28 01:21:11;;;;;;;23.50;5.15;;;9.10;99.90;;;;;;6190692;23;20021;-77
2023/12/28 01:23:37;;;;;;;15.50;3.72;;;9.10;99.90;;;;;;6190851;23;20020;-77
2023/12/28 01:26:05;;;;;;;25.33;4.25;;;9.10;99.90;;;;;;6217257;23;20341;-77
2023/12/28 01:28:31;;;;;;;22.55;4.75;;;9.10;99.90;;;;;;6190584;23;20013;-76
2023/12/28 01:30:56;;;;;;;29.25;4.57;;;9.10;99.90;;;;;;6190653;23;20013;-77
2023/12/28 01:33:22;;;;;;;22.80;4.70;;;9.10;99.90;;;;;;6190523;23;20052;-77
2023/12/28 01:35:48;;;;;;;21.10;4.13;;;9.00;99.90;;;;;;6190753;23;20019;-77
2023/12/28 01:38:13;;;;;;;17.27;3.88;;;9.10;99.90;;;;;;6190626;23;20380;-77
2023/12/28 01:40:44;;;;;;;18.73;2.97;;;9.10;99.90;;;;;;6189926;23;20515;-77
2023/12/28 01:43:10;;;;;;;20.25;3.90;;;9.10;99.90;;;;;;6217161;23;20044;-77
2023/12/28 01:45:36;;;;;;;28.85;4.70;;;9.00;99.90;;;;;;6190480;23;20336;-77
2023/12/28 01:48:03;;;;;;;23.23;3.53;;;9.00;99.90;;;;;;6190432;23;20472;-76
2023/12/28 01:50:31;;;;;;;22.35;4.35;;;8.90;99.90;;;;;;6190488;23;20013;-77
2023/12/28 01:53:00;;;;;;;28.13;4.40;;;8.90;99.90;;;;;;6190349;23;20055;-77
2023/12/28 01:55:27;;;;;;;21.88;5.05;;;9.00;99.90;;;;;;6190303;23;20063;-77
2023/12/28 01:57:54;;;;;;;27.58;4.60;;;8.90;99.90;;;;;;6190396;23;20021;-77
2023/12/28 02:00:24;;;;;;;26.42;4.35;;;9.00;99.90;;;;;;6190367;23;20032;-77
2023/12/28 02:02:51;;;;;;;21.17;5.15;;;8.90;99.90;;;;;;6190363;23;20021;-77
2023/12/28 02:05:17;;;;;;;29.80;5.22;;;9.00;99.90;;;;;;6190297;23;20027;-77
2023/12/28 02:07:43;;;;;;;20.88;3.65;;;9.00;99.90;;;;;;6190217;23;20034;-77
2023/12/28 02:10:09;;;;;;;21.58;6.43;;;9.00;99.90;;;;;;6216854;23;20125;-77
2023/12/28 02:12:35;;;;;;;25.88;4.10;;;9.00;99.90;;;;;;6217265;23;20020;-77
2023/12/28 02:15:01;;;;;;;26.98;4.85;;;9.10;99.90;;;;;;6190290;23;20012;-77
2023/12/28 02:17:43;;;;;;;21.10;5.07;;;9.10;99.90;;;;;;6190224;23;20016;-77
2023/12/28 02:20:10;;;;;;;26.77;4.75;;;9.10;99.90;;;;;;6190153;23;20032;-77
2023/12/28 02:22:36;;;;;;;18.98;4.25;;;9.10;99.90;;;;;;6190124;23;20035;-76
2023/12/28 02:25:06;;;;;;;17.77;3.88;;;9.10;99.90;;;;;;6217019;23;20020;-77
2023/12/28 02:27:35;;;;;;;29.30;4.38;;;9.10;99.90;;;;;;6216989;23;20090;-77
2023/12/28 02:30:01;;;;;;;20.35;5.05;;;9.10;99.90;;;;;;6190102;23;20095;-77
2023/12/28 02:32:38;;;;;;;27.15;4.95;;;9.10;99.90;;;;;;6190131;23;20075;-77
2023/12/28 02:35:17;;;;;;;20.35;3.15;;;9.10;99.90;;;;;;6190057;23;20099;-77
2023/12/28 02:37:44;;;;;;;21.92;5.07;;;9.10;99.90;;;;;;6190008;23;20021;-77
2023/12/28 02:40:11;;;;;;;18.73;3.85;;;9.20;99.90;;;;;;6190018;23;20464;-77
2023/12/28 02:42:37;;;;;;;25.20;5.07;;;9.20;99.90;;;;;;6216908;23;20040;-77
2023/12/28 02:45:04;;;;;;;31.77;4.43;;;9.30;99.90;;;;;;6189961;23;20516;-77
2023/12/28 02:47:30;;;;;;;21.17;3.22;;;9.30;99.90;;;;;;6216008;23;20341;-77
2023/12/28 02:49:59;;;;;;;17.05;3.85;;;9.30;99.90;;;;;;6189710;23;20028;-77
2023/12/28 02:52:24;;;;;;;25.80;4.80;;;9.40;99.90;;;;;;6189683;23;20012;-77
2023/12/28 02:54:50;;;;;;;24.33;3.60;;;9.40;99.90;;;;;;6216742;23;20013;-77
2023/12/28 02:57:18;;;;;;;19.05;4.05;;;9.40;99.90;;;;;;6189818;23;20459;-77
2023/12/28 02:59:47;;;;;;;19.23;3.15;;;9.30;99.90;;;;;;6189797;23;20046;-77
2023/12/28 03:02:13;;;;;;;22.88;4.22;;;9.40;99.90;;;;;;6189785;23;20357;-77
2023/12/28 03:04:38;;;;;;;23.30;3.75;;;9.40;99.90;;;;;;6189852;23;20017;-77
2023/12/28 03:07:05;;;;;;;19.73;4.43;;;9.40;99.90;;;;;;6189734;23;20027;-77
2023/12/28 03:09:30;;;;;;;25.13;3.70;;;9.40;99.90;;;;;;6189669;23;20027;-77
2023/12/28 03:11:56;;;;;;;22.13;3.83;;;9.40;99.90;;;;;;6189770;23;20017;-77
2023/12/28 03:14:22;;;;;;;14.60;2.95;;;9.40;99.90;;;;;;6216525;23;20110;-77
2023/12/28 03:16:50;;;;;;;17.98;3.08;;;9.40;99.90;;;;;;6189656;23;20016;-77
2023/12/28 03:19:16;;;;;;;22.48;3.45;;;9.40;99.90;;;;;;6190673;23;20016;-77
2023/12/28 03:21:42;;;;;;;19.13;3.33;;;9.40;99.90;;;;;;6189489;23;20067;-77
2023/12/28 03:24:07;;;;;;;17.90;3.50;;;9.40;99.90;;;;;;6189726;23;20016;-77
2023/12/28 03:26:40;;;;;;;11.95;2.47;;;9.40;99.90;;;;;;6189598;23;20436;-77
2023/12/28 03:29:07;;;;;;;;;;;9.40;99.90;;;;;;6190032;23;20025;-77
2023/12/28 03:31:32;;;;;;;18.25;3.33;;;9.30;99.90;;;;;;6189370;23;19916;-77
2023/12/28 03:33:59;;;;;;;20.70;4.38;;;9.40;99.90;;;;;;6189557;23;20021;-77
2023/12/28 03:36:24;;;;;;;14.23;3.13;;;9.40;99.90;;;;;;6189581;23;20009;-77
2023/12/28 03:38:50;;;;;;;16.13;4.45;;;9.40;99.90;;;;;;6189515;23;20083;-77
2023/12/28 03:41:17;;;;;;;13.48;3.25;;;9.40;99.90;;;;;;6189415;23;20027;-77
2023/12/28 03:43:42;;;;;;;19.55;2.90;;;9.50;99.90;;;;;;6189536;23;20017;-77
2023/12/28 03:46:10;;;;;;;11.95;2.63;;;9.50;99.90;;;;;;6189253;23;20036;-77
2023/12/28 03:48:36;;;;;;;18.35;3.58;;;9.50;99.90;;;;;;6189333;23;20029;-77
2023/12/28 03:51:03;;;;;;;13.93;2.78;;;9.50;99.90;;;;;;6189426;23;20384;-77
2023/12/28 03:53:28;;;;;;;12.90;2.72;;;9.50;99.90;;;;;;6189407;23;20025;-77
2023/12/28 03:55:54;;;;;;;15.55;2.90;;;9.50;99.90;;;;;;6189459;23;20516;-77
2023/12/28 03:58:20;;;;;;;19.67;3.53;;;9.50;99.90;;;;;;6189314;23;20025;-77
2023/12/28 04:00:45;;;;;;;18.33;3.20;;;9.50;99.90;;;;;;6189413;23;20460;-77
2023/12/28 04:03:11;;;;;;;24.23;3.55;;;9.60;99.90;;;;;;6189614;23;20084;-77
2023/12/28 04:05:37;;;;;;;15.82;3.28;;;9.60;99.90;;;;;;6191496;23;20071;-77
2023/12/28 04:08:03;;;;;;;9.07;2.60;;;9.70;99.90;;;;;;6217877;23;20020;-77
2023/12/28 04:10:32;;;;;;;16.27;3.20;;;9.70;99.90;;;;;;6191331;23;20016;-77
2023/12/28 04:12:59;;;;;;;14.57;4.00;;;9.70;99.90;;;;;;6191288;23;20445;-77
2023/12/28 04:15:26;;;;;;;10.00;2.78;;;9.60;99.90;;;;;;6191408;23;20020;-77
2023/12/28 04:17:52;;;;;;;14.35;3.60;;;9.70;99.90;;;;;;6191336;23;20445;-77
2023/12/28 04:20:17;;;;;;;16.60;3.28;;;9.60;99.90;;;;;;6191410;23;20021;-77
2023/12/28 04:22:44;;;;;;;23.42;3.70;;;9.60;99.90;;;;;;6191193;23;20157;-77
2023/12/28 04:25:10;;;;;;;20.33;3.67;;;9.60;99.90;;;;;;6191223;23;20099;-77
2023/12/28 04:27:36;;;;;;;14.75;3.53;;;9.60;99.90;;;;;;6191039;23;20048;-77
2023/12/28 04:30:02;;;;;;;20.33;3.63;;;9.60;99.90;;;;;;6217836;23;20056;-77
2023/12/28 04:32:27;;;;;;;15.85;3.08;;;9.60;99.90;;;;;;6191210;23;20322;-77
2023/12/28 04:34:56;;;;;;;17.17;4.07;;;9.70;99.90;;;;;;6191507;23;20039;-77
2023/12/28 04:37:22;;;;;;;11.80;3.38;;;9.70;99.90;;;;;;6191124;23;20024;-77
2023/12/28 04:39:47;;;;;;;14.63;2.80;;;9.70;99.90;;;;;;6191117;23;20441;-77
2023/12/28 04:42:13;;;;;;;14.63;3.40;;;9.70;99.90;;;;;;6217737;23;20449;-77
2023/12/28 04:44:42;;;;;;;14.40;2.90;;;9.60;99.90;;;;;;6217679;23;20390;-77
2023/12/28 04:47:08;;;;;;;23.67;3.42;;;9.60;99.90;;;;;;6190540;23;20447;-77
2023/12/28 04:49:34;;;;;;;16.08;3.20;;;9.70;99.90;;;;;;6217870;23;20020;-77
2023/12/28 04:52:00;;;;;;;23.50;3.60;;;9.70;99.90;;;;;;6190953;23;20078;-77
2023/12/28 04:54:26;;;;;;;15.43;3.30;;;9.70;99.90;;;;;;6190886;23;20028;-77
2023/12/28 04:56:51;;;;;;;17.45;3.45;;;9.70;99.90;;;;;;6190855;23;20017;-77
2023/12/28 04:59:17;;;;;;;17.30;3.03;;;9.70;99.90;;;;;;6191018;23;20021;-77
2023/12/28 05:01:43;;;;;;;15.10;3.70;;;9.80;99.90;;;;;;6190934;23;20150;-77
2023/12/28 05:04:10;;;;;;;23.25;3.70;;;9.80;99.90;;;;;;6191009;23;20020;-77
2023/12/28 05:06:36;;;;;;;21.05;3.85;;;9.80;99.90;;;;;;6217488;23;20020;-77
2023/12/28 05:09:01;;;;;;;14.75;2.72;;;9.90;99.90;;;;;;6190728;23;20154;-77
2023/12/28 05:11:39;;;;;;;16.15;3.35;;;9.90;99.90;;;;;;6190852;23;20017;-77
2023/12/28 05:14:05;;;;;;;22.80;3.85;;;10.00;99.90;;;;;;6217528;23;20012;-77
2023/12/28 05:16:31;;;;;;;21.02;3.63;;;10.00;99.90;;;;;;6190841;23;20052;-77
2023/12/28 05:18:56;;;;;;;16.02;3.33;;;9.90;99.90;;;;;;6217755;23;20028;-77
2023/12/28 05:21:25;;;;;;;17.45;3.58;;;9.90;99.90;;;;;;6190779;23;20321;-77
2023/12/28 05:23:50;;;;;;;23.27;3.05;;;9.90;99.90;;;;;;6190623;23;20472;-77
2023/12/28 05:26:16;;;;;;;18.73;3.67;;;9.90;99.90;;;;;;6191012;23;20016;-77
2023/12/28 05:28:42;;;;;;;26.90;3.95;;;9.90;99.90;;;;;;6190567;23;20340;-77
2023/12/28 05:31:07;;;;;;;20.42;3.28;;;9.90;99.90;;;;;;6190219;23;20020;-77
2023/12/28 05:33:33;;;;;;;21.55;3.05;;;9.90;99.90;;;;;;6190626;23;20024;-77
2023/12/28 05:36:02;;;;;;;21.30;3.20;;;9.90;99.90;;;;;;6190545;23;20073;-77
2023/12/28 05:38:27;;;;;;;17.80;3.90;;;9.90;99.90;;;;;;6190460;23;20071;-77
2023/12/28 05:40:53;;;;;;;19.48;3.53;;;9.90;99.90;;;;;;6190513;23;20021;-77
2023/12/28 05:43:21;;;;;;;27.13;4.68;;;9.90;99.90;;;;;;6190524;23;20017;-77
2023/12/28 05:45:47;;;;;;;19.08;3.50;;;9.90;99.90;;;;;;6190418;23;20345;-77
2023/12/28 05:48:12;;;;;;;29.02;5.40;;;9.90;99.90;;;;;;6190283;23;20451;-77
2023/12/28 05:50:38;;;;;;;22.42;4.18;;;9.80;99.90;;;;;;6190540;23;20020;-77
2023/12/28 05:53:06;;;;;;;24.05;4.35;;;9.90;99.90;;;;;;6190348;23;20020;-77
2023/12/28 05:55:32;;;;;;;25.55;5.53;;;9.80;99.90;;;;;;6190391;23;20072;-77
2023/12/28 05:57:57;;;;;;;25.92;4.40;;;9.90;99.90;;;;;;6217357;23;20024;-77
2023/12/28 06:00:23;;;;;;;24.75;4.53;;;9.90;99.90;;;;;;6190386;23;20016;-77
2023/12/28 06:02:51;;;;;;;23.35;3.92;;;9.90;99.90;;;;;;6190442;23;20017;-77
2023/12/28 06:05:17;;;;;;;32.58;4.15;;;9.90;99.90;;;;;;6190230;23;20060;-77
2023/12/28 06:07:43;;;;;;;32.88;4.55;;;9.90;99.90;;;;;;6190285;23;20345;-77
2023/12/28 06:10:09;;;;;;;20.00;3.78;;;10.00;99.90;;;;;;6190300;23;20013;-77
2023/12/28 06:12:35;;;;;;;27.15;4.30;;;9.90;99.90;;;;;;6190123;23;20013;-77
2023/12/28 06:15:01;;;;;;;31.88;6.25;;;10.00;99.90;;;;;;6190219;23;20024;-77
2023/12/28 06:17:26;;;;;;;22.90;4.07;;;10.00;99.90;;;;;;6190201;23;20017;-77
2023/12/28 06:19:52;;;;;;;23.40;4.28;;;10.00;99.90;;;;;;6190557;23;20028;-77
2023/12/28 06:22:18;;;;;;;25.90;4.18;;;10.10;99.90;;;;;;6190122;23;20016;-77
2023/12/28 06:24:43;;;;;;;30.27;4.75;;;10.00;99.90;;;;;;6190113;23;20026;-77
2023/12/28 06:27:09;;;;;;;26.67;5.15;;;10.10;99.90;;;;;;6189789;23;20087;-77
2023/12/28 06:29:35;;;;;;;24.63;3.95;;;10.10;99.90;;;;;;6190254;23;20024;-77
2023/12/28 06:32:00;;;;;;;23.63;3.70;;;10.10;99.90;;;;;;6190040;23;20013;-77
2023/12/28 06:34:26;;;;;;;25.20;4.40;;;10.10;99.90;;;;;;6190041;23;20023;-77
2023/12/28 06:36:52;;;;;;;25.80;4.57;;;10.10;99.90;;;;;;6216932;23;20015;-77
2023/12/28 06:39:17;;;;;;;27.85;4.53;;;10.10;99.90;;;;;;6189989;23;20020;-77
2023/12/28 06:41:48;;;;;;;23.13;3.47;;;10.10;99.90;;;;;;6190045;23;20021;-77
2023/12/28 06:44:14;;;;;;;24.08;3.35;;;10.20;99.90;;;;;;6189952;23;20016;-77
2023/12/28 06:46:40;;;;;;;18.77;3.50;;;10.10;99.90;;;;;;6189745;23;20044;-77
2023/12/28 06:49:08;;;;;;;25.45;3.45;;;10.10;99.90;;;;;;6189834;23;20092;-76
2023/12/28 06:51:33;;;;;;;23.17;4.68;;;10.10;99.90;;;;;;6189855;23;20016;-77
2023/12/28 06:53:59;;;;;;;27.67;5.63;;;10.10;99.90;;;;;;6189876;23;20023;-77
2023/12/28 06:56:25;;;;;;;33.00;5.22;;;10.10;99.90;;;;;;6189905;23;20012;-77
2023/12/28 06:58:51;;;;;;;29.23;4.57;;;10.10;99.90;;;;;;6189783;23;20013;-77
2023/12/28 07:01:16;;;;;;;32.63;4.97;;;10.10;99.90;;;;;;6189707;23;20048;-77
2023/12/28 07:03:42;;;;;;;31.70;4.57;;;10.10;99.90;;;;;;6189731;23;20016;-77
2023/12/28 07:06:08;;;;;;;30.88;4.38;;;10.00;99.90;;;;;;6189686;23;20028;-77
2023/12/28 07:08:34;;;;;;;27.80;4.32;;;10.00;99.90;;;;;;6189555;23;20032;-77
2023/12/28 07:10:59;;;;;;;33.97;5.55;;;10.00;99.90;;;;;;6189701;23;20441;-77
2023/12/28 07:13:26;;;;;;;30.08;5.93;;;10.00;99.90;;;;;;6190046;23;20040;-77
2023/12/28 07:15:51;;;;;;;26.33;4.68;;;10.00;99.90;;;;;;6189764;23;20013;-77
2023/12/28 07:18:17;;;;;;;18.17;3.70;;;10.10;99.90;;;;;;6189734;23;20095;-77
2023/12/28 07:20:43;;;;;;;35.35;6.15;;;10.10;99.90;;;;;;6216551;23;20044;-77
2023/12/28 07:23:09;;;;;;;28.88;5.05;;;10.10;99.90;;;;;;6189587;23;20020;-77
2023/12/28 07:25:35;;;;;;;28.70;4.90;;;10.10;99.90;;;;;;6189748;23;20059;-77
2023/12/28 07:28:01;;;;;;;29.35;4.75;;;10.10;99.90;;;;;;6216381;23;20017;-77
2023/12/28 07:30:27;;;;;;;35.28;5.45;;;10.10;99.90;;;;;;6189562;23;20024;-77
2023/12/28 07:32:53;;;;;;;28.63;4.82;;;10.10;99.90;;;;;;6189592;23;20107;-77
2023/12/28 07:35:18;;;;;;;34.83;5.18;;;10.10;99.90;;;;;;6216375;23;20413;-77
2023/12/28 07:37:44;;;;;;;30.90;5.30;;;10.10;99.90;;;;;;6189482;23;20020;-77
2023/12/28 07:40:12;;;;;;;21.17;3.92;;;10.10;99.90;;;;;;6189483;23;20015;-77
2023/12/28 07:42:38;;;;;;;28.38;4.80;;;10.10;99.90;;;;;;6189461;23;20012;-77
2023/12/28 07:45:05;;;;;;;30.73;5.78;;;10.10;99.90;;;;;;6189282;23;20095;-77
2023/12/28 07:47:30;;;;;;;28.85;4.80;;;10.10;99.90;;;;;;6188984;23;20397;-77
2023/12/28 07:49:56;;;;;;;34.00;4.72;;;10.10;99.90;;;;;;6189322;23;20212;-77
2023/12/28 07:52:22;;;;;;;29.73;4.13;;;10.10;99.90;;;;;;6215259;23;20032;-77
2023/12/28 07:54:47;;;;;;;36.72;7.20;;;10.10;99.90;;;;;;6215537;23;20467;-77
2023/12/28 07:57:13;;;;;;;33.95;6.30;;;10.10;99.90;;;;;;6189286;23;20067;-77
2023/12/28 07:59:39;;;;;;;28.35;5.30;;;10.10;99.90;;;;;;6189388;23;20020;-77
2023/12/28 08:02:05;;;;;;;30.80;5.13;;;10.10;99.90;;;;;;6189167;23;20024;-77
2023/12/28 08:04:31;;;;;;;30.13;6.35;;;10.10;99.90;;;;;;6216155;23;20016;-76
2023/12/28 08:06:58;;;;;;;33.50;6.38;;;10.10;99.90;;;;;;6189342;23;20012;-76
2023/12/28 08:09:24;;;;;;;37.70;6.18;;;10.10;99.90;;;;;;6189195;23;20024;-77
2023/12/28 08:11:49;;;;;;;34.95;5.95;;;10.20;99.90;;;;;;6189331;23;20457;-78
2023/12/28 08:14:15;;;;;;;29.10;5.50;;;10.20;99.90;;;;;;6189206;23;20078;-79
2023/12/28 08:16:41;;;;;;;37.13;6.32;;;10.20;99.90;;;;;;6214968;23;20341;-78
2023/12/28 08:19:06;;;;;;;34.53;6.10;;;10.20;99.90;;;;;;6189004;23;20020;-77
2023/12/28 08:21:32;;;;;;;28.55;5.32;;;10.30;99.90;;;;;;6189031;23;20020;-78
2023/12/28 08:23:57;;;;;;;32.50;5.30;;;10.30;99.90;;;;;;6188996;23;20021;-78
2023/12/28 08:26:23;;;;;;;31.45;5.95;;;10.20;99.90;;;;;;6189026;23;20017;-79
2023/12/28 08:28:49;;;;;;;38.08;6.70;;;10.20;99.90;;;;;;6215432;23;20021;-77
2023/12/28 08:31:14;;;;;;;44.67;6.20;;;10.20;99.90;;;;;;6215438;23;20100;-77
2023/12/28 08:33:40;;;;;;;36.03;6.85;;;10.30;99.90;;;;;;6187915;23;20013;-77
2023/12/28 08:36:07;;;;;;;34.42;5.57;;;10.30;99.90;;;;;;6188974;23;20016;-77
2023/12/28 08:38:33;;;;;;;34.08;5.30;;;10.30;99.90;;;;;;6188850;23;20023;-80
2023/12/28 08:40:59;;;;;;;36.50;6.63;;;10.30;99.90;;;;;;6188832;23;20029;-81
2023/12/28 08:43:24;;;;;;;34.00;7.20;;;10.30;99.90;;;;;;6188927;23;20023;-79
2023/12/28 08:45:50;;;;;;;42.85;6.35;;;10.30;99.90;;;;;;6188826;23;20024;-79
2023/12/28 08:48:15;;;;;;;39.63;5.90;;;10.30;99.90;;;;;;6215133;23;20020;-79
2023/12/28 08:50:41;;;;;;;41.10;6.82;;;10.30;99.90;;;;;;6216861;23;20426;-77
2023/12/28 08:53:07;;;;;;;45.72;5.90;;;10.30;99.90;;;;;;6190765;23;20348;-77
2023/12/28 08:55:33;;;;;;;30.92;6.32;;;10.30;99.90;;;;;;6217209;23;20028;-77
2023/12/28 08:57:59;;;;;;;44.65;8.52;;;10.30;99.90;;;;;;6190665;23;20027;-77
2023/12/28 09:00:25;;;;;;;41.60;7.63;;;10.30;99.90;;;;;;6190554;23;20353;-77
2023/12/28 09:02:51;;;;;;;34.20;6.55;;;10.30;99.90;;;;;;6190605;23;20348;-79
2023/12/28 09:05:19;;;;;;;45.20;7.28;;;10.30;99.90;;;;;;6190488;23;20052;-79
2023/12/28 09:07:45;;;;;;;39.88;6.80;;;10.30;99.90;;;;;;6190452;23;20023;-77
2023/12/28 09:10:11;;;;;;;43.38;6.45;;;10.40;99.90;;;;;;6190539;23;20020;-78
2023/12/28 09:12:37;;;;;;;48.67;7.05;;;10.30;99.90;;;;;;6190520;23;20020;-77
2023/12/28 09:15:05;;;;;;;34.55;6.35;;;10.30;99.90;;;;;;6216969;23;20021;-77
2023/12/28 09:17:30;;;;;;;38.55;5.82;;;10.30;99.90;;;;;;6217062;23;20497;-77
2023/12/28 09:19:57;;;;;;;35.15;7.03;;;10.40;99.90;;;;;;6190527;23;20021;-77
2023/12/28 09:22:23;;;;;;;41.22;7.15;;;10.40;99.90;;;;;;6190385;23;20349;-78
2023/12/28 09:24:49;;;;;;;37.85;6.97;;;10.40;99.90;;;;;;6190366;23;20432;-78
2023/12/28 09:27:15;;;;;;;36.22;5.65;;;10.40;99.90;;;;;;6190400;23;20025;-78
2023/12/28 09:29:40;;;;;;;35.75;6.93;;;10.40;99.90;;;;;;6190391;23;20025;-78
2023/12/28 09:32:06;;;;;;;39.50;9.60;;;10.40;99.90;;;;;;6190518;23;20025;-78
2023/12/28 09:34:32;;;;;;;34.47;5.93;;;10.50;99.90;;;;;;6217086;23;20017;-78
2023/12/28 09:36:57;;;;;;;34.92;5.78;;;10.50;99.90;;;;;;6216864;23;20008;-78
2023/12/28 09:39:23;;;;;;;34.13;5.78;;;10.50;99.90;;;;;;6190229;23;20025;-78
2023/12/28 09:41:57;;;;;;;34.42;5.97;;;10.50;99.90;;;;;;6190210;23;20020;-78
2023/12/28 09:44:24;;;;;;;27.15;4.60;;;10.50;99.90;;;;;;6216938;23;20460;-79
2023/12/28 09:46:50;;;;;;;33.58;5.32;;;10.50;99.90;;;;;;6189923;23;20012;-79
2023/12/28 09:49:16;;;;;;;39.17;6.30;;;10.50;99.90;;;;;;6216630;23;20021;-79
2023/12/28 09:51:42;;;;;;;30.83;6.63;;;10.60;99.90;;;;;;6189990;23;20084;-81
2023/12/28 09:54:08;;;;;;;35.35;6.25;;;10.60;99.90;;;;;;6189952;23;20063;-80
2023/12/28 09:56:34;;;;;;;35.47;6.18;;;10.50;99.90;;;;;;6185249;23;20475;-81
2023/12/28 09:59:02;;;;;;;36.75;6.50;;;10.60;99.90;;;;;;6183606;23;20059;-81
2023/12/28 10:01:27;;;;;;;32.88;6.10;;;10.60;99.90;;;;;;6210389;23;20377;-80
2023/12/28 10:03:53;;;;;;;27.92;4.85;;;10.60;99.90;;;;;;6184841;23;20078;-81
2023/12/28 10:06:19;;;;;;;36.53;6.10;;;10.60;99.90;;;;;;6183607;23;20021;-80
2023/12/28 10:08:48;;;;;;;34.40;6.00;;;10.60;99.90;;;;;;6184013;23;20021;-80
2023/12/28 10:11:19;;;;;;;33.70;6.13;;;10.50;99.90;;;;;;6184803;23;20588;-80
2023/12/28 10:13:45;;;;;;;29.45;5.43;;;10.60;99.90;;;;;;6183914;23;20101;-79
2023/12/28 10:16:12;;;;;;;30.08;5.38;;;10.60;99.90;;;;;;6183861;23;20075;-79
2023/12/28 10:18:47;;;;;;;31.60;4.93;;;10.60;99.90;;;;;;6184579;23;20063;-80
2023/12/28 10:21:13;;;;;;;27.25;5.75;;;10.60;99.90;;;;;;6185082;23;20020;-79
2023/12/28 10:23:39;;;;;;;33.20;4.82;;;10.70;99.90;;;;;;6183815;23;20075;-79
2023/12/28 10:26:05;;;;;;;32.40;6.00;;;10.70;99.90;;;;;;6183616;23;20024;-79
2023/12/28 10:28:38;;;;;;;43.95;6.30;;;10.70;99.90;;;;;;6184666;23;20020;-80
2023/12/28 10:31:04;;;;;;;26.30;5.47;;;10.70;99.90;;;;;;6184618;23;20020;-80
2023/12/28 10:33:35;;;;;;;27.98;5.28;;;10.70;99.90;;;;;;6210292;23;20297;-79
2023/12/28 10:36:06;;;;;;;34.55;5.68;;;10.70;99.90;;;;;;6183765;23;20013;-79
2023/12/28 10:38:37;;;;;;;35.33;5.60;;;10.70;99.90;;;;;;6183967;23;20025;-78
2023/12/28 10:41:08;;;;;;;36.45;4.75;;;10.70;99.90;;;;;;6184729;23;20016;-79
2023/12/28 10:43:57;;;;;;;23.88;4.22;;;10.70;99.90;;;;;;6184236;23;20016;-79
2023/12/28 10:46:27;;;;;;;33.70;5.15;;;10.70;99.90;;;;;;6183271;23;20052;-79
2023/12/28 10:48:59;;;;;;;28.33;5.50;;;10.70;99.90;;;;;;6211276;23;20028;-79
2023/12/28 10:51:27;;;;;;;34.45;5.90;;;10.60;99.90;;;;;;6184352;23;20024;-79
2023/12/28 10:54:10;;;;;;;31.20;4.97;;;10.60;99.90;;;;;;6183618;23;20089;-79
2023/12/28 10:56:41;;;;;;;;;;;10.70;99.90;;;;;;6184310;23;20051;-80
2023/12/28 10:59:16;;;;;;;;;;;10.70;99.90;;;;;;6183979;23;19939;-76
2023/12/28 11:01:43;;;;;;;;;;;10.60;99.90;;;;;;6210730;23;19922;-76
2023/12/28 11:04:21;;;;;;;;;;;10.60;99.90;;;;;;6184100;23;19925;-77
2023/12/28 11:06:47;;;;;;;;;;;10.70;99.90;;;;;;6183645;23;20221;-80
2023/12/28 11:09:15;;;;;;;;;;;10.70;99.90;;;;;;6184898;23;19915;-80
2023/12/28 11:11:44;;;;;;;;;;;10.70;99.90;;;;;;6183852;23;19915;-79
2023/12/28 11:14:10;;;;;;;;;;;10.70;99.90;;;;;;6183649;23;19923;-79
2023/12/28 11:16:37;;;;;;;;;;;10.70;99.90;;;;;;6184594;23;19919;-79
2023/12/28 11:19:03;;;;;;;;;;;10.70;99.90;;;;;;6184268;23;20640;-80
2023/12/28 11:21:29;;;;;;;;;;;10.80;99.90;;;;;;6183810;23;20320;-79
2023/12/28 11:23:55;;;;;;;;;;;10.70;99.90;;;;;;6184523;23;19962;-79
2023/12/28 11:26:21;;;;;;;;;;;10.70;99.90;;;;;;6184073;23;19923;-80
2023/12/28 11:28:47;;;;;;;;;;;10.70;99.90;;;;;;6183659;23;19915;-80
2023/12/28 11:31:18;;;;;;;;;;;10.70;99.90;;;;;;6184991;23;19920;-79
2023/12/28 11:33:56;;;;;;;;;;;10.80;99.90;;;;;;6189186;23;19916;-80
2023/12/28 11:36:23;;;;;;;;;;;10.70;99.90;;;;;;6189110;23;20394;-79
2023/12/28 11:38:52;;;;;;;;;;;10.80;99.90;;;;;;6216294;23;19915;-79
2023/12/28 11:41:20;;;;;;;;;;;10.80;99.90;;;;;;6215914;23;19920;-80
2023/12/28 11:43:51;;;;;;;;;;;10.80;99.90;;;;;;6189077;23;20298;-80
2023/12/28 11:46:19;;;;;;;;;;;10.80;99.90;;;;;;6188270;23;19922;-77
2023/12/28 11:48:46;;;;;;;;;;;10.80;99.90;;;;;;6216012;23;19935;-78
2023/12/28 11:51:14;;;;;;;;;;;10.80;99.90;;;;;;6190322;23;19916;-78
2023/12/28 11:53:41;;;;;;;;;;;10.80;99.90;;;;;;6215957;23;19915;-78
2023/12/28 11:56:09;;;;;;;;;;;10.80;99.90;;;;;;6216086;23;19916;-78
2023/12/28 11:58:35;;;;;;;;;;;10.80;99.90;;;;;;6216165;23;19995;-77
2023/12/28 12:01:02;;;;;;;;;;;10.80;99.90;;;;;;6216432;23;19916;-76
2023/12/28 12:03:28;;;;;;;;;;;10.80;99.90;;;;;;6216089;23;20375;-77
2023/12/28 12:05:56;;;;;;;;;;;10.70;99.90;;;;;;6189444;23;19920;-77
2023/12/28 12:08:22;;;;;;;;;;;10.70;99.90;;;;;;6216175;23;19923;-77
2023/12/28 12:10:48;;;;;;;;;;;10.70;99.90;;;;;;6215353;23;20244;-77
2023/12/28 12:13:13;;;;;;;;;;;10.70;99.90;;;;;;6189548;23;20321;-77
2023/12/28 12:15:39;;;;;;;;;;;10.70;99.90;;;;;;6189499;23;19987;-78
2023/12/28 12:18:04;;;;;;;;;;;10.80;99.90;;;;;;6189511;23;19926;-76
2023/12/28 12:20:30;;;;;;;;;;;10.80;99.90;;;;;;6189121;23;19915;-76
2023/12/28 12:22:59;;;;;;;;;;;10.70;99.90;;;;;;6189496;23;20332;-76
2023/12/28 12:25:25;;;;;;;;;;;10.70;99.90;;;;;;6190541;23;19920;-76
2023/12/28 12:27:50;;;;;;;;;;;10.70;99.90;;;;;;6191358;23;19923;-76
2023/12/28 12:30:16;;;;;;;;;;;10.80;99.90;;;;;;6191456;23;19923;-76
2023/12/28 12:32:42;;;;;;;;;;;10.80;99.90;;;;;;6216951;23;19920;-76
2023/12/28 12:35:10;;;;;;;;;;;10.80;99.90;;;;;;6190122;23;19927;-76
2023/12/28 12:37:35;;;;;;;;;;;10.70;99.90;;;;;;6217269;23;19961;-78
2023/12/28 12:40:01;;;;;;;;;;;10.70;99.90;;;;;;6191389;23;19951;-76
2023/12/28 12:42:27;;;;;;;;;;;10.70;99.90;;;;;;6218138;23;20213;-79
2023/12/28 12:44:53;;;;;;;;;;;10.70;99.90;;;;;;6191191;23;20018;-77
2023/12/28 12:47:22;;;;;;;;;;;10.70;99.90;;;;;;6190963;23;19990;-77
2023/12/28 12:49:49;;;;;;;;;;;10.70;99.90;;;;;;6218221;23;19915;-78
2023/12/28 12:52:14;;;;;;;;;;;10.70;99.90;;;;;;6218133;23;19939;-76